Classifiche di sempre
Migliori tempi personali validi di atleta tra tutti gli eventi e le stagioni. Ogni atleta compare una sola volta per divisione.
Cerca per nome e apri la pagina in cui è classificato questo record di divisione.
104,510 atleti in classifica
| Pos. | Pos. AG | Atleta | Nazionalità | Categoria età | TempoMiglior tempo | Distacco |
|---|---|---|---|---|---|---|
| 85476 | #20811 | Maddie StecchAUS · W 25-29 · AG #20811 | AUS | W 25-29 | 1:54:09 | +74:33 |
| 85477 | #11967 | Ellie RichardsGBR · W 16-24 · AG #11967 | GBR | W 16-24 | 1:54:09 | +74:33 |
| 85478 | #20812 | Georgina MerrettGBR · W 25-29 · AG #20812 | GBR | W 25-29 | 1:54:09 | +74:33 |
| 85479 | #15774 | Kate OnleyUSA · W 35-39 · AG #15774 | USA | W 35-39 | 1:54:09 | +74:33 |
| 85480 | #11018 | Linda Elizabeth NielsenDEN · W 40-44 · AG #11018 | DEN | W 40-44 | 1:54:09 | +74:33 |
| 85481 | #20532 | Wiebke PriesGER · W 30-34 · AG #20532 | GER | W 30-34 | 1:54:09 | +74:33 |
| 85482 | #11969 | Aimée VisserNED · W 16-24 · AG #11969 | NED | W 16-24 | 1:54:09 | +74:33 |
| 85483 | #20810 | Alexa DeBartoloUSA · W 25-29 · AG #20810 | USA | W 25-29 | 1:54:09 | +74:33 |
| 85484 | #15773 | Lorrena TanglaoUSA · W 35-39 · AG #15773 | USA | W 35-39 | 1:54:09 | +74:33 |
| 85485 | #15775 | Rosalind Mei Huan SohSIN · W 35-39 · AG #15775 | SIN | W 35-39 | 1:54:09 | +74:33 |
| 85486 | #6172 | Nicola CrossGBR · W 45-49 · AG #6172 | GBR | W 45-49 | 1:54:09 | +74:33 |
| 85487 | #15776 | Grace NiuHKG · W 35-39 · AG #15776 | HKG | W 35-39 | 1:54:09 | +74:33 |
| 85488 | #20813 | 雪娇 费CHN · W 25-29 · AG #20813 | CHN | W 25-29 | 1:54:09 | +74:33 |
| 85489 | #11968 | Georgia UnwinGBR · W 16-24 · AG #11968 | GBR | W 16-24 | 1:54:09 | +74:33 |
| 85490 | #20534 | Zi Yun LimSIN · W 30-34 · AG #20534 | SIN | W 30-34 | 1:54:09 | +74:33 |
| 85491 | #20533 | Bianka BesterRSA · W 30-34 · AG #20533 | RSA | W 30-34 | 1:54:09 | +74:33 |
| 85492 | #20530 | Danielle NormanAUS · W 30-34 · AG #20530 | AUS | W 30-34 | 1:54:09 | +74:33 |
| 85493 | #20814 | KA YI MOKHKG · W 25-29 · AG #20814 | HKG | W 25-29 | 1:54:09 | +74:33 |
| 85494 | #1074 | Patrizia BaiardoITA · W 55-59 · AG #1074 | ITA | W 55-59 | 1:54:10 | +74:34 |
| 85495 | #11019 | Sharfeyney binti SazaliMAS · W 40-44 · AG #11019 | MAS | W 40-44 | 1:54:10 | +74:34 |
| 85496 | #15777 | Jezza RaazAUS · W 35-39 · AG #15777 | AUS | W 35-39 | 1:54:10 | +74:34 |
| 85497 | #20535 | Allanda ByromGBR · W 30-34 · AG #20535 | GBR | W 30-34 | 1:54:10 | +74:34 |
| 85498 | #20815 | Emma ToussainNED · W 25-29 · AG #20815 | NED | W 25-29 | 1:54:10 | +74:34 |
| 85499 | #15778 | Medina TheodoreSUI · W 35-39 · AG #15778 | SUI | W 35-39 | 1:54:10 | +74:34 |
| 85500 | #11970 | Kim WenglerLUX · W 16-24 · AG #11970 | LUX | W 16-24 | 1:54:10 | +74:34 |
Pagina 3,420 di 4,181